createdAt,value
2018-07-26T00:00:54.312Z,62.17
2018-07-26T00:03:22.863Z,62.45
2018-07-26T00:05:52.226Z,62.23
2018-07-26T00:08:21.728Z,62.35
2018-07-26T00:10:50.351Z,62.20
2018-07-26T00:13:18.904Z,62.89
2018-07-26T00:15:47.472Z,63.49
2018-07-26T00:18:16.080Z,63.57
2018-07-26T00:20:44.651Z,63.48
2018-07-26T00:23:13.284Z,64.45
2018-07-26T00:25:41.856Z,64.63
2018-07-26T00:28:10.427Z,65.44
2018-07-26T00:30:39.122Z,65.72
2018-07-26T00:33:07.732Z,66.28
2018-07-26T00:35:36.276Z,66.14
2018-07-26T00:38:05.048Z,66.44
2018-07-26T00:40:33.664Z,68.62
2018-07-26T00:43:02.204Z,67.95
2018-07-26T00:45:31.895Z,66.94
2018-07-26T00:48:00.462Z,67.76
2018-07-26T00:50:29.358Z,67.39
2018-07-26T00:52:57.987Z,67.03
2018-07-26T00:55:26.535Z,66.12
2018-07-26T00:57:55.320Z,66.41
2018-07-26T01:00:24.013Z,65.83
2018-07-26T01:02:52.588Z,66.22
2018-07-26T01:05:21.607Z,65.88
2018-07-26T01:07:50.330Z,65.78
2018-07-26T01:10:18.948Z,66.46
2018-07-26T01:12:47.608Z,66.06
2018-07-26T01:15:17.575Z,66.97
2018-07-26T01:17:46.190Z,67.44
2018-07-26T01:20:14.771Z,67.02
2018-07-26T01:22:43.493Z,67.32
2018-07-26T01:25:12.350Z,67.63
2018-07-26T01:27:41.123Z,68.60
2018-07-26T01:30:09.687Z,68.07
2018-07-26T01:32:38.271Z,67.19
2018-07-26T01:35:06.985Z,66.65
2018-07-26T01:37:35.605Z,66.10
2018-07-26T01:40:04.314Z,66.31
2018-07-26T01:42:42.667Z,65.46
2018-07-26T01:45:11.760Z,66.36
2018-07-26T01:47:40.363Z,66.17
2018-07-26T01:50:08.950Z,66.76
2018-07-26T01:52:37.883Z,66.59
2018-07-26T01:55:06.435Z,67.21
2018-07-26T01:57:35.102Z,67.75
2018-07-26T02:00:03.727Z,67.92
2018-07-26T02:02:32.635Z,68.80
2018-07-26T02:05:01.205Z,69.56
2018-07-26T02:07:30.705Z,69.39
2018-07-26T02:09:59.256Z,69.46
2018-07-26T02:12:27.880Z,71.17
2018-07-26T02:14:56.451Z,71.04
2018-07-26T02:17:25.013Z,70.80
2018-07-26T02:19:53.601Z,70.24
2018-07-26T02:22:22.162Z,70.02
2018-07-26T02:24:50.727Z,70.99
2018-07-26T02:27:20.204Z,70.95
2018-07-26T02:29:49.071Z,70.82
2018-07-26T02:32:17.700Z,69.96
2018-07-26T02:34:46.350Z,70.37
2018-07-26T02:37:15.352Z,70.58
2018-07-26T02:39:43.926Z,70.13
2018-07-26T02:42:12.497Z,69.49
2018-07-26T02:44:41.240Z,69.39
2018-07-26T02:47:10.024Z,68.82
2018-07-26T02:49:38.585Z,67.96
2018-07-26T02:52:07.210Z,68.23
2018-07-26T02:54:35.760Z,67.76
2018-07-26T02:57:04.328Z,67.73
2018-07-26T02:59:32.916Z,68.01
2018-07-26T03:02:01.486Z,68.18
2018-07-26T03:04:30.048Z,67.60
2018-07-26T03:06:58.608Z,68.53
2018-07-26T03:09:27.294Z,68.38
2018-07-26T03:11:55.815Z,69.20
2018-07-26T03:14:24.428Z,69.73
2018-07-26T03:16:52.984Z,70.29
2018-07-26T03:19:21.537Z,70.14
2018-07-26T03:21:50.095Z,69.77
2018-07-26T03:24:18.693Z,69.80
2018-07-26T03:26:47.435Z,70.12
2018-07-26T03:29:16.320Z,70.76
2018-07-26T03:31:44.950Z,70.83
2018-07-26T03:34:13.612Z,70.22
2018-07-26T03:36:42.284Z,69.40
2018-07-26T03:39:17.603Z,69.93
2018-07-26T03:41:46.259Z,69.96
2018-07-26T03:44:16.996Z,70.18
2018-07-26T03:46:46.191Z,69.73
2018-07-26T03:49:15.294Z,70.01
2018-07-26T03:51:43.868Z,70.16
2018-07-26T03:54:12.492Z,70.20
2018-07-26T03:56:41.065Z,69.47
2018-07-26T03:59:09.729Z,69.39
2018-07-26T04:01:38.433Z,68.97
2018-07-26T04:04:07.767Z,68.78
2018-07-26T04:06:37.099Z,68.91
2018-07-26T04:09:12.343Z,68.55
2018-07-26T04:11:41.447Z,69.12
2018-07-26T04:14:10.082Z,70.00
2018-07-26T04:16:38.631Z,70.73
2018-07-26T04:19:08.059Z,70.39
2018-07-26T04:21:36.876Z,70.43
2018-07-26T04:24:05.605Z,70.69
2018-07-26T04:26:34.459Z,70.57
2018-07-26T04:29:03.214Z,70.10
2018-07-26T04:31:32.096Z,70.06
2018-07-26T04:34:00.679Z,69.61
2018-07-26T04:36:29.228Z,69.33
2018-07-26T04:38:57.812Z,68.50
2018-07-26T04:41:26.560Z,67.75
2018-07-26T04:43:55.327Z,67.58
2018-07-26T04:46:23.915Z,67.99
2018-07-26T04:48:53.208Z,67.59
2018-07-26T04:51:21.776Z,68.41
2018-07-26T04:53:50.324Z,68.31
2018-07-26T04:56:18.937Z,68.74
2018-07-26T04:58:47.477Z,68.76
2018-07-26T05:01:16.085Z,68.71
2018-07-26T05:03:44.628Z,69.58
2018-07-26T05:06:13.192Z,69.38
2018-07-26T05:08:41.812Z,68.88
2018-07-26T05:11:11.900Z,68.50
2018-07-26T05:13:40.549Z,67.35
2018-07-26T05:16:09.155Z,67.34
2018-07-26T05:18:37.816Z,66.68
2018-07-26T05:21:06.577Z,66.74
2018-07-26T05:23:35.232Z,66.90
2018-07-26T05:26:03.868Z,66.68
2018-07-26T05:28:32.463Z,66.67
2018-07-26T05:31:01.100Z,66.46
2018-07-26T05:33:29.788Z,66.15
2018-07-26T05:35:58.350Z,65.71
2018-07-26T05:38:26.924Z,65.33
2018-07-26T05:40:55.544Z,64.85
2018-07-26T05:43:24.229Z,64.70
2018-07-26T05:45:52.780Z,64.30
2018-07-26T05:48:21.379Z,64.49
2018-07-26T05:50:49.989Z,66.68
2018-07-26T05:53:18.634Z,65.70
2018-07-26T05:55:47.155Z,66.13
2018-07-26T05:58:15.721Z,63.59
2018-07-26T06:00:44.294Z,63.11
2018-07-26T06:03:13.939Z,63.41
2018-07-26T06:05:43.212Z,63.15
2018-07-26T06:08:12.173Z,62.59
2018-07-26T06:10:40.740Z,61.85
2018-07-26T06:13:09.389Z,61.23
2018-07-26T06:15:37.933Z,60.90
2018-07-26T06:18:06.669Z,60.74
2018-07-26T06:20:35.372Z,60.31
2018-07-26T06:23:03.951Z,60.74
2018-07-26T06:25:32.667Z,59.68
2018-07-26T06:28:01.370Z,59.55
2018-07-26T06:30:29.940Z,59.45
2018-07-26T06:32:58.529Z,59.24
2018-07-26T06:35:28.773Z,59.43
2018-07-26T06:37:57.389Z,58.07
2018-07-26T06:40:26.286Z,58.62
2018-07-26T06:42:55.393Z,57.72
2018-07-26T06:45:24.006Z,57.34
2018-07-26T06:47:52.604Z,57.05
2018-07-26T06:50:21.160Z,56.89
2018-07-26T06:52:49.904Z,56.74
2018-07-26T06:55:20.162Z,56.27
2018-07-26T06:57:49.155Z,54.87
2018-07-26T07:00:17.741Z,55.16
2018-07-26T07:02:46.329Z,55.69
2018-07-26T07:05:15.959Z,54.94
2018-07-26T07:07:44.720Z,55.90
2018-07-26T07:10:13.399Z,55.13
2018-07-26T07:12:41.958Z,55.19
2018-07-26T07:15:12.496Z,55.24
2018-07-26T07:17:41.075Z,54.17
2018-07-26T07:20:10.111Z,53.82
2018-07-26T07:22:38.860Z,53.52
2018-07-26T07:25:07.606Z,53.85
2018-07-26T07:27:36.256Z,53.79
2018-07-26T07:30:06.660Z,53.83
2018-07-26T07:32:35.222Z,54.19
2018-07-26T07:35:03.865Z,53.58
2018-07-26T07:37:32.420Z,53.37
2018-07-26T07:40:01.133Z,53.49
2018-07-26T07:42:29.851Z,53.32
2018-07-26T07:44:58.400Z,52.70
2018-07-26T07:47:27.106Z,52.07
2018-07-26T07:49:55.693Z,52.07
2018-07-26T07:52:24.383Z,52.11
2018-07-26T07:54:52.929Z,52.27
2018-07-26T07:57:21.540Z,52.18
2018-07-26T07:59:50.188Z,51.49
2018-07-26T08:02:18.757Z,50.98
2018-07-26T08:04:47.392Z,51.23
2018-07-26T08:07:15.978Z,51.54
2018-07-26T08:09:44.609Z,51.19
2018-07-26T08:12:13.925Z,51.06
2018-07-26T08:14:42.485Z,50.85
2018-07-26T08:17:11.300Z,50.53
2018-07-26T08:19:39.840Z,51.20
2018-07-26T08:22:08.444Z,51.26
2018-07-26T08:24:37.032Z,52.03
2018-07-26T08:27:05.753Z,51.55
2018-07-26T08:29:34.431Z,51.36
2018-07-26T08:32:03.029Z,50.72
2018-07-26T08:34:31.672Z,50.59
2018-07-26T08:37:00.232Z,50.90
2018-07-26T08:39:28.805Z,50.73
2018-07-26T08:41:57.443Z,50.77
2018-07-26T08:44:26.013Z,51.45
2018-07-26T08:46:54.601Z,50.80
2018-07-26T08:49:23.279Z,52.16
2018-07-26T08:51:51.837Z,53.15
2018-07-26T08:54:20.452Z,52.81
2018-07-26T08:56:49.064Z,51.81
2018-07-26T08:59:17.711Z,51.48
2018-07-26T09:01:46.272Z,51.75
2018-07-26T09:04:14.830Z,51.00
2018-07-26T09:06:43.383Z,51.36
2018-07-26T09:09:13.769Z,51.26
2018-07-26T09:11:42.445Z,51.32
2018-07-26T09:14:11.120Z,52.14
2018-07-26T09:16:39.809Z,52.33
2018-07-26T09:19:08.714Z,51.02
2018-07-26T09:21:37.284Z,50.55
2018-07-26T09:24:05.942Z,49.52
2018-07-26T09:26:37.641Z,47.56
2018-07-26T09:29:06.397Z,47.40
2018-07-26T09:31:34.987Z,47.82
2018-07-26T09:34:07.048Z,47.77
2018-07-26T09:36:37.774Z,48.07
2018-07-26T09:39:15.667Z,46.56
2018-07-26T09:41:44.437Z,46.75
2018-07-26T09:44:13.062Z,47.49
2018-07-26T09:46:41.644Z,46.71
2018-07-26T09:49:10.432Z,48.97
2018-07-26T09:51:39.189Z,49.54
2018-07-26T09:54:08.019Z,48.58
2018-07-26T09:56:36.624Z,48.87
2018-07-26T09:59:05.286Z,50.89
2018-07-26T10:01:35.332Z,51.01
2018-07-26T10:04:03.877Z,52.19
2018-07-26T10:06:33.615Z,53.01
2018-07-26T10:09:02.210Z,52.02
2018-07-26T10:11:33.268Z,52.66
2018-07-26T10:14:01.816Z,52.87
2018-07-26T10:16:30.567Z,52.70
2018-07-26T10:18:59.544Z,51.86
2018-07-26T10:21:28.139Z,51.47
2018-07-26T10:23:56.809Z,50.91
2018-07-26T10:26:25.367Z,50.74
2018-07-26T10:28:53.917Z,50.81
2018-07-26T10:31:22.528Z,50.11
2018-07-26T10:33:51.160Z,50.54
2018-07-26T10:36:19.845Z,50.92
2018-07-26T10:38:48.437Z,50.06
2018-07-26T10:41:17.056Z,49.46
2018-07-26T10:43:45.833Z,49.88
2018-07-26T10:46:14.440Z,50.35
2018-07-26T10:48:43.303Z,50.71
2018-07-26T10:51:13.351Z,50.80
2018-07-26T10:53:41.996Z,51.74
2018-07-26T10:56:10.582Z,53.26
2018-07-26T10:58:39.174Z,52.95
2018-07-26T11:01:08.299Z,54.85
2018-07-26T11:03:37.028Z,57.33
2018-07-26T11:06:05.932Z,58.68
2018-07-26T11:08:34.536Z,60.95
2018-07-26T11:11:03.196Z,61.70
2018-07-26T11:13:31.903Z,59.73
2018-07-26T11:16:00.508Z,61.01
2018-07-26T11:18:29.078Z,63.45
2018-07-26T11:20:57.655Z,63.16
2018-07-26T11:23:26.260Z,61.48
2018-07-26T11:25:54.831Z,63.96
2018-07-26T11:28:23.407Z,64.56
2018-07-26T11:30:52.002Z,64.77
2018-07-26T11:33:20.571Z,63.93
2018-07-26T11:35:49.162Z,62.19
2018-07-26T11:38:17.730Z,61.52
2018-07-26T11:40:46.356Z,60.20
2018-07-26T11:43:15.029Z,60.65
2018-07-26T11:45:43.696Z,60.06
2018-07-26T11:48:12.283Z,59.18
2018-07-26T11:50:40.908Z,57.36
2018-07-26T11:53:09.518Z,57.76
2018-07-26T11:55:38.096Z,56.67
2018-07-26T11:58:06.657Z,56.05
2018-07-26T12:00:35.269Z,53.81
2018-07-26T12:03:03.846Z,49.98
2018-07-26T12:05:32.436Z,52.22
2018-07-26T12:08:01.743Z,52.05
2018-07-26T12:10:30.356Z,49.71
2018-07-26T12:12:59.804Z,50.78
2018-07-26T12:15:29.069Z,53.09
2018-07-26T12:17:57.641Z,53.00
2018-07-26T12:20:26.205Z,52.10
2018-07-26T12:22:54.766Z,51.67
2018-07-26T12:25:23.330Z,50.05
2018-07-26T12:27:51.903Z,49.93
2018-07-26T12:30:20.448Z,49.49
2018-07-26T12:32:49.006Z,47.23
2018-07-26T12:35:17.612Z,47.24
2018-07-26T12:37:46.188Z,47.99
2018-07-26T12:40:14.760Z,50.19
2018-07-26T12:42:43.356Z,49.11
2018-07-26T12:45:12.156Z,49.57
2018-07-26T12:47:40.865Z,50.53
2018-07-26T12:50:09.626Z,50.06
2018-07-26T12:52:38.432Z,50.85
2018-07-26T12:55:07.069Z,51.77
2018-07-26T12:57:35.646Z,57.59
2018-07-26T13:00:04.875Z,56.76
2018-07-26T13:02:33.484Z,61.41
2018-07-26T13:05:02.219Z,63.66
2018-07-26T13:07:30.801Z,64.86
2018-07-26T13:09:59.393Z,66.08
2018-07-26T13:12:27.976Z,65.29
2018-07-26T13:14:56.517Z,67.41
2018-07-26T13:17:25.091Z,66.94
2018-07-26T13:19:53.656Z,66.97
2018-07-26T13:22:22.496Z,65.72
2018-07-26T13:24:51.771Z,67.47
2018-07-26T13:27:20.452Z,68.18
2018-07-26T13:29:48.885Z,68.53
2018-07-26T13:32:17.484Z,70.45
2018-07-26T13:34:46.080Z,70.12
2018-07-26T13:37:14.687Z,70.44
2018-07-26T13:39:43.787Z,71.52
2018-07-26T13:42:12.429Z,71.42
2018-07-26T13:44:41.257Z,71.92
2018-07-26T13:47:09.855Z,72.41
2018-07-26T13:49:38.414Z,72.27
2018-07-26T13:52:07.332Z,72.48
2018-07-26T13:54:36.044Z,72.65
2018-07-26T13:57:04.656Z,74.66
2018-07-26T13:59:33.315Z,75.34
2018-07-26T14:02:01.896Z,74.43
2018-07-26T14:04:30.641Z,73.75
2018-07-26T14:06:59.222Z,73.02
2018-07-26T14:09:29.741Z,73.12
2018-07-26T14:11:58.352Z,74.63
2018-07-26T14:14:26.941Z,75.46
2018-07-26T14:16:55.755Z,76.24
2018-07-26T14:19:24.357Z,76.30
2018-07-26T14:21:52.963Z,75.42
2018-07-26T14:24:23.531Z,75.42
2018-07-26T14:26:52.860Z,74.65
2018-07-26T14:29:22.818Z,74.84
2018-07-26T14:31:51.451Z,74.65
2018-07-26T14:34:20.068Z,73.91
2018-07-26T14:36:48.659Z,73.14
2018-07-26T14:39:17.242Z,73.78
2018-07-26T14:41:46.074Z,73.88
2018-07-26T14:44:14.664Z,73.95
2018-07-26T14:46:43.719Z,73.57
2018-07-26T14:49:12.481Z,74.42
2018-07-26T14:51:41.074Z,73.83
2018-07-26T14:54:09.646Z,73.94
2018-07-26T14:56:38.253Z,73.66
2018-07-26T14:59:06.877Z,74.27
2018-07-26T15:01:35.571Z,74.01
2018-07-26T15:04:04.554Z,74.36
2018-07-26T15:06:33.275Z,74.36
2018-07-26T15:09:01.932Z,73.33
2018-07-26T15:11:30.696Z,73.15
2018-07-26T15:13:59.256Z,73.62
2018-07-26T15:16:27.860Z,73.72
2018-07-26T15:18:56.467Z,72.88
2018-07-26T15:21:25.164Z,73.54
2018-07-26T15:23:53.754Z,73.26
2018-07-26T15:26:22.576Z,74.06
2018-07-26T15:28:51.104Z,73.53
2018-07-26T15:31:19.847Z,73.31
2018-07-26T15:33:48.486Z,72.46
2018-07-26T15:36:17.270Z,70.55
2018-07-26T15:38:45.836Z,69.25
2018-07-26T15:41:14.669Z,69.87
2018-07-26T15:43:43.360Z,71.20
2018-07-26T15:46:11.984Z,72.25
2018-07-26T15:48:40.697Z,73.35
2018-07-26T15:51:09.347Z,72.84
2018-07-26T15:53:37.914Z,72.79
2018-07-26T15:56:06.884Z,72.72
2018-07-26T15:58:35.514Z,72.61
2018-07-26T16:01:04.177Z,71.19
2018-07-26T16:03:34.140Z,69.83
2018-07-26T16:06:03.886Z,69.05
2018-07-26T16:08:32.904Z,69.54
2018-07-26T16:11:01.641Z,69.95
2018-07-26T16:13:30.173Z,70.75
2018-07-26T16:15:58.786Z,70.98
2018-07-26T16:18:27.468Z,70.90
2018-07-26T16:20:56.090Z,69.15
2018-07-26T16:23:25.140Z,69.43
2018-07-26T16:25:53.921Z,70.12
2018-07-26T16:28:22.515Z,71.20
2018-07-26T16:30:51.125Z,71.29
2018-07-26T16:33:19.890Z,72.32
2018-07-26T16:35:48.488Z,72.67
2018-07-26T16:38:17.325Z,73.31
2018-07-26T16:40:46.127Z,74.10
2018-07-26T16:43:14.845Z,72.31
2018-07-26T16:45:43.455Z,71.23
2018-07-26T16:48:12.369Z,72.11
2018-07-26T16:50:41.142Z,71.62
2018-07-26T16:53:09.896Z,72.78
2018-07-26T16:55:38.691Z,73.18
2018-07-26T16:58:07.300Z,73.76
2018-07-26T17:00:36.363Z,74.03
2018-07-26T17:03:05.301Z,73.80
2018-07-26T17:05:33.886Z,73.49
2018-07-26T17:08:02.522Z,73.70
2018-07-26T17:10:31.190Z,73.84
2018-07-26T17:12:59.820Z,74.09
2018-07-26T17:15:28.599Z,74.22
2018-07-26T17:17:57.199Z,73.53
2018-07-26T17:20:26.174Z,73.91
2018-07-26T17:22:54.746Z,74.18
2018-07-26T17:25:26.844Z,73.90
2018-07-26T17:27:56.487Z,73.71
2018-07-26T17:30:25.201Z,74.64
2018-07-26T17:32:53.869Z,74.39
2018-07-26T17:35:22.464Z,74.35
2018-07-26T17:37:51.295Z,74.40
2018-07-26T17:40:19.952Z,73.88
2018-07-26T17:42:48.519Z,73.28
2018-07-26T17:45:17.166Z,74.32
2018-07-26T17:47:46.009Z,74.52
2018-07-26T17:50:14.634Z,75.34
2018-07-26T17:52:43.313Z,75.97
2018-07-26T17:55:11.975Z,76.07
2018-07-26T17:57:41.169Z,75.87
2018-07-26T18:00:12.137Z,75.34
2018-07-26T18:02:40.899Z,75.96
2018-07-26T18:05:09.949Z,76.40
2018-07-26T18:07:38.544Z,76.34
2018-07-26T18:10:07.963Z,76.86
2018-07-26T18:12:36.559Z,76.04
2018-07-26T18:15:06.971Z,75.23
2018-07-26T18:17:35.595Z,75.87
2018-07-26T18:20:05.023Z,76.73
2018-07-26T18:22:33.725Z,77.46
2018-07-26T18:25:02.393Z,77.22
2018-07-26T18:27:31.547Z,76.85
2018-07-26T18:30:00.151Z,76.13
2018-07-26T18:32:30.031Z,76.25
2018-07-26T18:34:58.603Z,76.02
2018-07-26T18:37:27.170Z,75.87
2018-07-26T18:39:55.803Z,75.28
2018-07-26T18:42:26.531Z,74.88
2018-07-26T18:44:55.137Z,74.60
2018-07-26T18:47:23.800Z,74.91
2018-07-26T18:49:52.839Z,74.38
2018-07-26T18:52:21.408Z,74.52
2018-07-26T18:54:50.425Z,75.32
2018-07-26T18:57:19.001Z,75.56
2018-07-26T18:59:47.571Z,75.85
2018-07-26T19:02:16.178Z,76.60
2018-07-26T19:04:44.808Z,76.23
2018-07-26T19:07:14.326Z,76.88
2018-07-26T19:09:42.874Z,77.09
2018-07-26T19:12:11.663Z,76.97
2018-07-26T19:14:40.242Z,77.23
2018-07-26T19:17:10.121Z,76.94
2018-07-26T19:19:38.836Z,77.10
2018-07-26T19:22:08.249Z,77.37
2018-07-26T19:24:37.365Z,77.41
2018-07-26T19:27:06.040Z,77.88
2018-07-26T19:29:35.152Z,78.30
2018-07-26T19:32:03.704Z,78.07
2018-07-26T19:34:32.327Z,79.02
2018-07-26T19:37:00.968Z,79.93
2018-07-26T19:39:29.525Z,79.77
2018-07-26T19:41:58.162Z,80.35
2018-07-26T19:44:26.815Z,80.52
2018-07-26T19:46:55.483Z,79.88
2018-07-26T19:49:24.089Z,79.38
2018-07-26T19:51:52.764Z,79.32
2018-07-26T19:54:21.477Z,78.68
2018-07-26T19:56:50.071Z,78.92
2018-07-26T19:59:18.696Z,78.77
2018-07-26T20:01:47.328Z,79.17
2018-07-26T20:04:15.967Z,78.93
2018-07-26T20:06:45.269Z,79.32
2018-07-26T20:09:19.664Z,79.32
2018-07-26T20:11:48.383Z,78.68
2018-07-26T20:14:17.236Z,78.54
2018-07-26T20:16:45.868Z,77.72
2018-07-26T20:19:15.604Z,78.49
2018-07-26T20:21:44.164Z,79.60
2018-07-26T20:24:12.853Z,79.76
2018-07-26T20:26:41.874Z,80.07
2018-07-26T20:29:10.740Z,79.45
2018-07-26T20:31:39.428Z,79.31
2018-07-26T20:34:08.044Z,78.29
2018-07-26T20:36:36.731Z,78.14
2018-07-26T20:39:08.895Z,78.06
2018-07-26T20:41:38.506Z,79.27
2018-07-26T20:44:07.121Z,79.33
2018-07-26T20:46:35.864Z,78.98
2018-07-26T20:49:04.502Z,79.43
2018-07-26T20:51:33.191Z,79.78
2018-07-26T20:54:01.788Z,79.30
2018-07-26T20:56:30.381Z,79.42
2018-07-26T20:58:58.966Z,79.18
2018-07-26T21:01:27.537Z,80.52
2018-07-26T21:03:56.140Z,81.26
2018-07-26T21:06:24.747Z,81.57
2018-07-26T21:08:53.367Z,81.27
2018-07-26T21:11:22.211Z,80.83
2018-07-26T21:13:51.142Z,80.62
2018-07-26T21:16:20.076Z,80.68
2018-07-26T21:18:48.674Z,80.12
2018-07-26T21:21:17.342Z,80.17
2018-07-26T21:23:46.750Z,79.89
2018-07-26T21:26:15.364Z,79.29
2018-07-26T21:28:43.993Z,79.04
2018-07-26T21:31:13.120Z,79.22
2018-07-26T21:33:41.785Z,78.91
2018-07-26T21:36:10.376Z,78.26
2018-07-26T21:38:39.230Z,78.48
2018-07-26T21:41:07.995Z,78.27
2018-07-26T21:43:36.698Z,77.93
2018-07-26T21:46:05.308Z,77.84
2018-07-26T21:48:33.959Z,77.71
2018-07-26T21:51:02.573Z,78.69
2018-07-26T21:53:31.132Z,80.20
2018-07-26T21:55:59.917Z,80.22
2018-07-26T21:58:28.544Z,80.95
2018-07-26T22:00:57.659Z,80.65
2018-07-26T22:03:28.841Z,80.69
2018-07-26T22:05:58.297Z,80.85
2018-07-26T22:08:28.037Z,80.53
2018-07-26T22:10:56.623Z,81.15
2018-07-26T22:13:25.329Z,81.99
2018-07-26T22:15:54.179Z,81.65
2018-07-26T22:18:23.330Z,81.62
2018-07-26T22:20:52.353Z,82.15
2018-07-26T22:23:21.059Z,81.37
2018-07-26T22:25:51.329Z,80.43
2018-07-26T22:28:20.238Z,79.75
2018-07-26T22:30:49.432Z,79.43
2018-07-26T22:33:18.000Z,78.83
2018-07-26T22:35:46.581Z,78.72
2018-07-26T22:38:15.195Z,78.60
2018-07-26T22:40:43.797Z,78.31
2018-07-26T22:43:12.668Z,79.07
2018-07-26T22:45:41.403Z,78.61
2018-07-26T22:48:10.059Z,78.98
2018-07-26T22:50:38.782Z,78.03
2018-07-26T22:53:07.499Z,77.84
2018-07-26T22:55:36.180Z,78.63
2018-07-26T22:58:04.999Z,78.98
2018-07-26T23:00:33.904Z,78.80
2018-07-26T23:03:02.601Z,78.82
2018-07-26T23:05:31.519Z,79.04
2018-07-26T23:08:00.524Z,79.02
2018-07-26T23:10:29.128Z,78.92
2018-07-26T23:12:57.844Z,78.48
2018-07-26T23:15:26.933Z,78.95
2018-07-26T23:17:55.501Z,79.20
2018-07-26T23:20:24.506Z,78.58
2018-07-26T23:22:54.666Z,78.55
2018-07-26T23:25:23.464Z,78.64
2018-07-26T23:27:52.059Z,77.96
2018-07-26T23:30:20.933Z,77.50
2018-07-26T23:32:49.504Z,77.76
2018-07-26T23:35:19.532Z,77.11
2018-07-26T23:37:49.126Z,78.90
2018-07-26T23:40:17.880Z,80.28
2018-07-26T23:42:46.421Z,80.66
2018-07-26T23:45:16.713Z,81.15
2018-07-26T23:47:45.281Z,81.79
2018-07-26T23:50:13.923Z,81.57
2018-07-26T23:52:42.521Z,81.88
2018-07-26T23:55:11.752Z,80.69
2018-07-26T23:57:40.308Z,80.20
